sensor_id;sensor_type;location;lat;lon;timestamp;P1;durP1;ratioP1;P2;durP2;ratioP2
23046;SDS011;11691;51.462;6.902;2022-08-19T00:01:47;6.65;;;5.07;;
23046;SDS011;11691;51.462;6.902;2022-08-19T00:04:15;8.38;;;5.15;;
23046;SDS011;11691;51.462;6.902;2022-08-19T00:06:42;7.00;;;5.60;;
23046;SDS011;11691;51.462;6.902;2022-08-19T00:09:11;7.28;;;6.30;;
23046;SDS011;11691;51.462;6.902;2022-08-19T00:11:37;6.72;;;5.45;;
23046;SDS011;11691;51.462;6.902;2022-08-19T00:14:04;8.10;;;5.82;;
23046;SDS011;11691;51.462;6.902;2022-08-19T00:16:32;6.78;;;5.57;;
23046;SDS011;11691;51.462;6.902;2022-08-19T00:18:58;6.25;;;5.38;;
23046;SDS011;11691;51.462;6.902;2022-08-19T00:21:25;8.10;;;6.38;;
23046;SDS011;11691;51.462;6.902;2022-08-19T00:23:52;7.50;;;6.03;;
23046;SDS011;11691;51.462;6.902;2022-08-19T00:26:18;7.18;;;5.32;;
23046;SDS011;11691;51.462;6.902;2022-08-19T00:28:44;6.68;;;5.97;;
23046;SDS011;11691;51.462;6.902;2022-08-19T00:31:11;9.13;;;6.88;;
23046;SDS011;11691;51.462;6.902;2022-08-19T00:33:37;7.35;;;6.60;;
23046;SDS011;11691;51.462;6.902;2022-08-19T00:36:03;9.98;;;6.60;;
23046;SDS011;11691;51.462;6.902;2022-08-19T00:38:31;6.97;;;6.25;;
23046;SDS011;11691;51.462;6.902;2022-08-19T00:40:57;7.80;;;6.60;;
23046;SDS011;11691;51.462;6.902;2022-08-19T00:43:24;7.13;;;6.43;;
23046;SDS011;11691;51.462;6.902;2022-08-19T00:45:51;9.60;;;6.72;;
23046;SDS011;11691;51.462;6.902;2022-08-19T00:48:17;9.73;;;7.07;;
23046;SDS011;11691;51.462;6.902;2022-08-19T00:50:43;10.20;;;7.13;;
23046;SDS011;11691;51.462;6.902;2022-08-19T00:53:14;10.90;;;7.93;;
23046;SDS011;11691;51.462;6.902;2022-08-19T00:55:42;9.73;;;7.53;;
23046;SDS011;11691;51.462;6.902;2022-08-19T00:58:12;8.52;;;6.32;;
23046;SDS011;11691;51.462;6.902;2022-08-19T01:00:38;7.85;;;6.20;;
23046;SDS011;11691;51.462;6.902;2022-08-19T01:03:06;8.35;;;7.20;;
23046;SDS011;11691;51.462;6.902;2022-08-19T01:05:32;7.95;;;7.15;;
23046;SDS011;11691;51.462;6.902;2022-08-19T01:07:59;7.78;;;6.88;;
23046;SDS011;11691;51.462;6.902;2022-08-19T01:10:29;10.50;;;7.90;;
23046;SDS011;11691;51.462;6.902;2022-08-19T01:12:57;9.07;;;6.63;;
23046;SDS011;11691;51.462;6.902;2022-08-19T01:15:32;9.65;;;7.70;;
23046;SDS011;11691;51.462;6.902;2022-08-19T01:18:04;8.70;;;6.82;;
23046;SDS011;11691;51.462;6.902;2022-08-19T01:20:30;8.93;;;7.50;;
23046;SDS011;11691;51.462;6.902;2022-08-19T01:22:59;10.05;;;7.47;;
23046;SDS011;11691;51.462;6.902;2022-08-19T01:25:32;9.60;;;6.75;;
23046;SDS011;11691;51.462;6.902;2022-08-19T01:28:00;9.73;;;6.75;;
23046;SDS011;11691;51.462;6.902;2022-08-19T01:30:27;9.35;;;6.82;;
23046;SDS011;11691;51.462;6.902;2022-08-19T01:32:56;10.48;;;8.15;;
23046;SDS011;11691;51.462;6.902;2022-08-19T01:35:25;9.20;;;7.22;;
23046;SDS011;11691;51.462;6.902;2022-08-19T01:38:02;15.02;;;7.85;;
23046;SDS011;11691;51.462;6.902;2022-08-19T01:40:34;10.32;;;7.38;;
23046;SDS011;11691;51.462;6.902;2022-08-19T01:43:03;9.65;;;7.65;;
23046;SDS011;11691;51.462;6.902;2022-08-19T01:45:32;13.40;;;8.38;;
23046;SDS011;11691;51.462;6.902;2022-08-19T01:47:59;10.48;;;7.45;;
23046;SDS011;11691;51.462;6.902;2022-08-19T01:50:25;11.43;;;8.55;;
23046;SDS011;11691;51.462;6.902;2022-08-19T01:52:51;9.68;;;7.93;;
23046;SDS011;11691;51.462;6.902;2022-08-19T01:55:18;9.55;;;8.30;;
23046;SDS011;11691;51.462;6.902;2022-08-19T01:57:48;11.18;;;8.30;;
23046;SDS011;11691;51.462;6.902;2022-08-19T02:00:18;9.25;;;8.20;;
23046;SDS011;11691;51.462;6.902;2022-08-19T02:02:45;9.73;;;7.78;;
23046;SDS011;11691;51.462;6.902;2022-08-19T02:05:11;11.45;;;8.07;;
23046;SDS011;11691;51.462;6.902;2022-08-19T02:07:38;9.15;;;8.20;;
23046;SDS011;11691;51.462;6.902;2022-08-19T02:10:10;10.48;;;8.48;;
23046;SDS011;11691;51.462;6.902;2022-08-19T02:12:36;11.15;;;8.93;;
23046;SDS011;11691;51.462;6.902;2022-08-19T02:15:03;13.02;;;9.80;;
23046;SDS011;11691;51.462;6.902;2022-08-19T02:17:29;10.52;;;8.63;;
23046;SDS011;11691;51.462;6.902;2022-08-19T02:19:55;9.55;;;8.55;;
23046;SDS011;11691;51.462;6.902;2022-08-19T02:22:21;13.43;;;9.02;;
23046;SDS011;11691;51.462;6.902;2022-08-19T02:24:47;13.50;;;8.45;;
23046;SDS011;11691;51.462;6.902;2022-08-19T02:27:14;9.68;;;8.35;;
23046;SDS011;11691;51.462;6.902;2022-08-19T02:29:42;9.05;;;8.15;;
23046;SDS011;11691;51.462;6.902;2022-08-19T02:32:08;11.73;;;8.77;;
23046;SDS011;11691;51.462;6.902;2022-08-19T02:34:34;11.50;;;8.23;;
23046;SDS011;11691;51.462;6.902;2022-08-19T02:37:00;10.43;;;8.65;;
23046;SDS011;11691;51.462;6.902;2022-08-19T02:39:25;11.73;;;9.27;;
23046;SDS011;11691;51.462;6.902;2022-08-19T02:41:51;12.85;;;9.93;;
23046;SDS011;11691;51.462;6.902;2022-08-19T02:44:18;9.40;;;8.05;;
23046;SDS011;11691;51.462;6.902;2022-08-19T02:46:44;9.88;;;8.65;;
23046;SDS011;11691;51.462;6.902;2022-08-19T02:49:11;11.93;;;9.18;;
23046;SDS011;11691;51.462;6.902;2022-08-19T02:51:38;10.18;;;9.07;;
23046;SDS011;11691;51.462;6.902;2022-08-19T02:54:05;15.23;;;9.50;;
23046;SDS011;11691;51.462;6.902;2022-08-19T02:56:34;16.45;;;9.85;;
23046;SDS011;11691;51.462;6.902;2022-08-19T02:59:00;12.27;;;10.95;;
23046;SDS011;11691;51.462;6.902;2022-08-19T03:01:28;12.65;;;10.13;;
23046;SDS011;11691;51.462;6.902;2022-08-19T03:03:56;11.10;;;9.27;;
23046;SDS011;11691;51.462;6.902;2022-08-19T03:06:23;11.20;;;9.40;;
23046;SDS011;11691;51.462;6.902;2022-08-19T03:08:49;12.50;;;10.10;;
23046;SDS011;11691;51.462;6.902;2022-08-19T03:11:25;13.15;;;10.52;;
23046;SDS011;11691;51.462;6.902;2022-08-19T03:13:51;11.75;;;9.13;;
23046;SDS011;11691;51.462;6.902;2022-08-19T03:16:19;11.50;;;10.07;;
23046;SDS011;11691;51.462;6.902;2022-08-19T03:18:46;13.90;;;10.77;;
23046;SDS011;11691;51.462;6.902;2022-08-19T03:21:19;12.10;;;10.30;;
23046;SDS011;11691;51.462;6.902;2022-08-19T03:23:46;15.93;;;10.70;;
23046;SDS011;11691;51.462;6.902;2022-08-19T03:26:12;11.00;;;9.57;;
23046;SDS011;11691;51.462;6.902;2022-08-19T03:28:40;11.82;;;9.02;;
23046;SDS011;11691;51.462;6.902;2022-08-19T03:31:07;12.43;;;9.95;;
23046;SDS011;11691;51.462;6.902;2022-08-19T03:33:34;12.05;;;9.65;;
23046;SDS011;11691;51.462;6.902;2022-08-19T03:36:01;11.73;;;9.25;;
23046;SDS011;11691;51.462;6.902;2022-08-19T03:38:28;11.40;;;9.25;;
23046;SDS011;11691;51.462;6.902;2022-08-19T03:40:54;11.40;;;9.55;;
23046;SDS011;11691;51.462;6.902;2022-08-19T03:43:20;11.95;;;9.82;;
23046;SDS011;11691;51.462;6.902;2022-08-19T03:45:46;11.13;;;9.15;;
23046;SDS011;11691;51.462;6.902;2022-08-19T03:48:13;12.48;;;9.32;;
23046;SDS011;11691;51.462;6.902;2022-08-19T03:50:41;14.25;;;10.05;;
23046;SDS011;11691;51.462;6.902;2022-08-19T03:53:07;12.88;;;9.57;;
23046;SDS011;11691;51.462;6.902;2022-08-19T03:55:34;11.98;;;9.38;;
23046;SDS011;11691;51.462;6.902;2022-08-19T03:58:00;13.48;;;9.35;;
23046;SDS011;11691;51.462;6.902;2022-08-19T04:00:26;12.32;;;8.82;;
23046;SDS011;11691;51.462;6.902;2022-08-19T04:02:51;13.73;;;10.15;;
23046;SDS011;11691;51.462;6.902;2022-08-19T04:05:17;10.68;;;8.60;;
23046;SDS011;11691;51.462;6.902;2022-08-19T04:07:43;12.57;;;9.50;;
23046;SDS011;11691;51.462;6.902;2022-08-19T04:10:09;11.85;;;9.88;;
23046;SDS011;11691;51.462;6.902;2022-08-19T04:12:35;13.70;;;9.95;;
23046;SDS011;11691;51.462;6.902;2022-08-19T04:15:01;12.35;;;9.40;;
23046;SDS011;11691;51.462;6.902;2022-08-19T04:17:27;12.43;;;9.50;;
23046;SDS011;11691;51.462;6.902;2022-08-19T04:19:53;12.45;;;9.75;;
23046;SDS011;11691;51.462;6.902;2022-08-19T04:22:19;10.95;;;9.07;;
23046;SDS011;11691;51.462;6.902;2022-08-19T04:24:45;16.33;;;9.65;;
23046;SDS011;11691;51.462;6.902;2022-08-19T04:27:11;11.65;;;9.27;;
23046;SDS011;11691;51.462;6.902;2022-08-19T04:29:37;12.27;;;10.07;;
23046;SDS011;11691;51.462;6.902;2022-08-19T04:32:05;11.73;;;9.63;;
23046;SDS011;11691;51.462;6.902;2022-08-19T04:34:31;14.45;;;10.20;;
23046;SDS011;11691;51.462;6.902;2022-08-19T04:36:57;18.13;;;11.80;;
23046;SDS011;11691;51.462;6.902;2022-08-19T04:39:26;17.02;;;11.73;;
23046;SDS011;11691;51.462;6.902;2022-08-19T04:42:12;18.67;;;11.65;;
23046;SDS011;11691;51.462;6.902;2022-08-19T04:44:56;19.33;;;12.27;;
23046;SDS011;11691;51.462;6.902;2022-08-19T04:47:23;14.13;;;11.80;;
23046;SDS011;11691;51.462;6.902;2022-08-19T04:49:49;16.45;;;11.55;;
23046;SDS011;11691;51.462;6.902;2022-08-19T04:52:14;16.73;;;12.48;;
23046;SDS011;11691;51.462;6.902;2022-08-19T04:54:40;15.02;;;11.82;;
23046;SDS011;11691;51.462;6.902;2022-08-19T04:57:07;14.00;;;11.75;;
23046;SDS011;11691;51.462;6.902;2022-08-19T04:59:35;18.33;;;12.60;;
23046;SDS011;11691;51.462;6.902;2022-08-19T05:02:02;14.82;;;11.40;;
23046;SDS011;11691;51.462;6.902;2022-08-19T05:04:28;18.15;;;12.48;;
23046;SDS011;11691;51.462;6.902;2022-08-19T05:06:57;17.83;;;12.55;;
23046;SDS011;11691;51.462;6.902;2022-08-19T05:09:23;17.55;;;12.98;;
23046;SDS011;11691;51.462;6.902;2022-08-19T05:11:49;17.05;;;13.65;;
23046;SDS011;11691;51.462;6.902;2022-08-19T05:14:17;19.13;;;13.98;;
23046;SDS011;11691;51.462;6.902;2022-08-19T05:16:44;19.63;;;15.55;;
23046;SDS011;11691;51.462;6.902;2022-08-19T05:19:10;19.88;;;15.77;;
23046;SDS011;11691;51.462;6.902;2022-08-19T05:21:55;18.20;;;14.95;;
23046;SDS011;11691;51.462;6.902;2022-08-19T05:24:39;21.38;;;17.48;;
23046;SDS011;11691;51.462;6.902;2022-08-19T05:27:05;21.45;;;17.15;;
23046;SDS011;11691;51.462;6.902;2022-08-19T05:29:32;20.80;;;16.02;;
23046;SDS011;11691;51.462;6.902;2022-08-19T05:31:59;20.52;;;15.13;;
23046;SDS011;11691;51.462;6.902;2022-08-19T05:34:26;22.05;;;15.35;;
23046;SDS011;11691;51.462;6.902;2022-08-19T05:36:54;19.75;;;16.63;;
23046;SDS011;11691;51.462;6.902;2022-08-19T05:39:22;19.67;;;15.77;;
23046;SDS011;11691;51.462;6.902;2022-08-19T05:41:50;25.42;;;17.52;;
23046;SDS011;11691;51.462;6.902;2022-08-19T05:44:19;20.00;;;15.65;;
23046;SDS011;11691;51.462;6.902;2022-08-19T05:46:46;24.08;;;18.02;;
23046;SDS011;11691;51.462;6.902;2022-08-19T05:49:13;18.60;;;15.50;;
23046;SDS011;11691;51.462;6.902;2022-08-19T05:51:41;21.65;;;15.93;;
23046;SDS011;11691;51.462;6.902;2022-08-19T05:54:07;19.83;;;16.73;;
23046;SDS011;11691;51.462;6.902;2022-08-19T05:56:34;22.70;;;16.95;;
23046;SDS011;11691;51.462;6.902;2022-08-19T05:59:03;24.88;;;19.77;;
23046;SDS011;11691;51.462;6.902;2022-08-19T06:01:34;23.85;;;18.25;;
23046;SDS011;11691;51.462;6.902;2022-08-19T06:04:02;27.02;;;20.38;;
23046;SDS011;11691;51.462;6.902;2022-08-19T06:06:28;27.50;;;19.63;;
23046;SDS011;11691;51.462;6.902;2022-08-19T06:08:54;31.75;;;20.92;;
23046;SDS011;11691;51.462;6.902;2022-08-19T06:11:22;30.63;;;20.58;;
23046;SDS011;11691;51.462;6.902;2022-08-19T06:13:51;28.38;;;21.67;;
23046;SDS011;11691;51.462;6.902;2022-08-19T06:16:20;34.47;;;22.88;;
23046;SDS011;11691;51.462;6.902;2022-08-19T06:18:53;34.50;;;23.75;;
23046;SDS011;11691;51.462;6.902;2022-08-19T06:21:20;32.67;;;21.90;;
23046;SDS011;11691;51.462;6.902;2022-08-19T06:23:48;31.17;;;22.35;;
23046;SDS011;11691;51.462;6.902;2022-08-19T06:26:14;34.30;;;22.88;;
23046;SDS011;11691;51.462;6.902;2022-08-19T06:28:41;30.92;;;24.27;;
23046;SDS011;11691;51.462;6.902;2022-08-19T06:31:10;37.47;;;24.55;;
23046;SDS011;11691;51.462;6.902;2022-08-19T06:33:37;30.63;;;23.63;;
23046;SDS011;11691;51.462;6.902;2022-08-19T06:36:04;34.13;;;24.08;;
23046;SDS011;11691;51.462;6.902;2022-08-19T06:38:31;40.47;;;26.17;;
23046;SDS011;11691;51.462;6.902;2022-08-19T06:41:04;36.13;;;27.05;;
23046;SDS011;11691;51.462;6.902;2022-08-19T06:43:30;33.97;;;25.50;;
23046;SDS011;11691;51.462;6.902;2022-08-19T06:45:56;34.40;;;25.83;;
23046;SDS011;11691;51.462;6.902;2022-08-19T06:48:24;35.70;;;26.25;;
23046;SDS011;11691;51.462;6.902;2022-08-19T06:50:50;35.60;;;25.63;;
23046;SDS011;11691;51.462;6.902;2022-08-19T06:53:16;38.92;;;27.42;;
23046;SDS011;11691;51.462;6.902;2022-08-19T06:55:44;36.53;;;24.98;;
23046;SDS011;11691;51.462;6.902;2022-08-19T06:58:10;40.15;;;26.23;;
23046;SDS011;11691;51.462;6.902;2022-08-19T07:00:36;39.85;;;26.00;;
23046;SDS011;11691;51.462;6.902;2022-08-19T07:03:02;34.88;;;27.00;;
23046;SDS011;11691;51.462;6.902;2022-08-19T07:05:28;36.53;;;25.63;;
23046;SDS011;11691;51.462;6.902;2022-08-19T07:07:54;36.70;;;26.63;;
23046;SDS011;11691;51.462;6.902;2022-08-19T07:10:21;42.00;;;28.42;;
23046;SDS011;11691;51.462;6.902;2022-08-19T07:12:47;40.42;;;27.05;;
23046;SDS011;11691;51.462;6.902;2022-08-19T07:15:15;38.88;;;27.83;;
23046;SDS011;11691;51.462;6.902;2022-08-19T07:17:41;40.75;;;28.58;;
23046;SDS011;11691;51.462;6.902;2022-08-19T07:20:08;39.13;;;28.63;;
23046;SDS011;11691;51.462;6.902;2022-08-19T07:22:35;37.95;;;26.98;;
23046;SDS011;11691;51.462;6.902;2022-08-19T07:25:01;36.08;;;26.02;;
23046;SDS011;11691;51.462;6.902;2022-08-19T07:27:28;36.78;;;27.77;;
23046;SDS011;11691;51.462;6.902;2022-08-19T07:29:54;33.63;;;26.45;;
23046;SDS011;11691;51.462;6.902;2022-08-19T07:32:20;33.17;;;25.77;;
23046;SDS011;11691;51.462;6.902;2022-08-19T07:34:46;34.03;;;26.75;;
23046;SDS011;11691;51.462;6.902;2022-08-19T07:37:12;40.72;;;29.20;;
23046;SDS011;11691;51.462;6.902;2022-08-19T07:39:38;40.10;;;29.15;;
23046;SDS011;11691;51.462;6.902;2022-08-19T07:42:06;40.33;;;30.02;;
23046;SDS011;11691;51.462;6.902;2022-08-19T07:44:35;36.15;;;27.08;;
23046;SDS011;11691;51.462;6.902;2022-08-19T07:47:01;37.45;;;28.83;;
23046;SDS011;11691;51.462;6.902;2022-08-19T07:49:28;33.80;;;27.50;;
23046;SDS011;11691;51.462;6.902;2022-08-19T07:51:55;37.67;;;28.83;;
23046;SDS011;11691;51.462;6.902;2022-08-19T07:54:22;34.53;;;28.02;;
23046;SDS011;11691;51.462;6.902;2022-08-19T07:56:48;33.45;;;27.90;;
23046;SDS011;11691;51.462;6.902;2022-08-19T07:59:18;33.97;;;27.55;;
23046;SDS011;11691;51.462;6.902;2022-08-19T08:01:45;32.33;;;26.08;;
23046;SDS011;11691;51.462;6.902;2022-08-19T08:04:11;34.78;;;26.55;;
23046;SDS011;11691;51.462;6.902;2022-08-19T08:06:58;32.92;;;23.98;;
23046;SDS011;11691;51.462;6.902;2022-08-19T08:09:43;32.88;;;25.55;;
23046;SDS011;11691;51.462;6.902;2022-08-19T08:12:18;32.60;;;25.23;;
23046;SDS011;11691;51.462;6.902;2022-08-19T08:14:46;30.60;;;24.08;;
23046;SDS011;11691;51.462;6.902;2022-08-19T08:17:13;28.38;;;23.40;;
23046;SDS011;11691;51.462;6.902;2022-08-19T08:19:39;32.15;;;26.38;;
23046;SDS011;11691;51.462;6.902;2022-08-19T08:22:09;31.33;;;25.10;;
23046;SDS011;11691;51.462;6.902;2022-08-19T08:24:55;31.23;;;25.10;;
23046;SDS011;11691;51.462;6.902;2022-08-19T08:27:23;30.08;;;24.17;;
23046;SDS011;11691;51.462;6.902;2022-08-19T08:29:49;27.38;;;23.15;;
23046;SDS011;11691;51.462;6.902;2022-08-19T08:32:16;28.25;;;22.73;;
23046;SDS011;11691;51.462;6.902;2022-08-19T08:34:41;31.60;;;22.60;;
23046;SDS011;11691;51.462;6.902;2022-08-19T08:37:07;29.70;;;24.10;;
23046;SDS011;11691;51.462;6.902;2022-08-19T08:39:33;26.48;;;22.58;;
23046;SDS011;11691;51.462;6.902;2022-08-19T08:42:05;26.05;;;22.45;;
23046;SDS011;11691;51.462;6.902;2022-08-19T08:47:23;22.17;;;19.00;;
23046;SDS011;11691;51.462;6.902;2022-08-19T08:50:02;25.90;;;19.92;;
23046;SDS011;11691;51.462;6.902;2022-08-19T08:52:30;21.70;;;18.55;;
23046;SDS011;11691;51.462;6.902;2022-08-19T08:55:00;20.38;;;17.85;;
23046;SDS011;11691;51.462;6.902;2022-08-19T08:57:35;19.08;;;15.73;;
23046;SDS011;11691;51.462;6.902;2022-08-19T09:00:03;21.50;;;14.23;;
23046;SDS011;11691;51.462;6.902;2022-08-19T09:02:31;25.10;;;14.00;;
23046;SDS011;11691;51.462;6.902;2022-08-19T09:04:57;18.13;;;14.00;;
23046;SDS011;11691;51.462;6.902;2022-08-19T09:07:41;18.92;;;14.63;;
23046;SDS011;11691;51.462;6.902;2022-08-19T09:10:21;15.82;;;12.35;;
23046;SDS011;11691;51.462;6.902;2022-08-19T09:12:54;13.60;;;10.35;;
23046;SDS011;11691;51.462;6.902;2022-08-19T09:15:25;14.57;;;11.00;;
23046;SDS011;11691;51.462;6.902;2022-08-19T09:17:53;10.80;;;9.70;;
23046;SDS011;11691;51.462;6.902;2022-08-19T09:20:22;16.40;;;12.55;;
23046;SDS011;11691;51.462;6.902;2022-08-19T09:22:48;13.85;;;12.27;;
23046;SDS011;11691;51.462;6.902;2022-08-19T09:25:16;17.25;;;11.95;;
23046;SDS011;11691;51.462;6.902;2022-08-19T09:27:42;12.48;;;10.05;;
23046;SDS011;11691;51.462;6.902;2022-08-19T09:30:19;12.70;;;10.70;;
23046;SDS011;11691;51.462;6.902;2022-08-19T09:32:47;16.02;;;12.18;;
23046;SDS011;11691;51.462;6.902;2022-08-19T09:35:13;16.25;;;11.93;;
23046;SDS011;11691;51.462;6.902;2022-08-19T09:37:40;14.70;;;12.25;;
23046;SDS011;11691;51.462;6.902;2022-08-19T09:40:07;16.60;;;10.75;;
23046;SDS011;11691;51.462;6.902;2022-08-19T09:42:33;15.23;;;12.30;;
23046;SDS011;11691;51.462;6.902;2022-08-19T09:45:00;17.52;;;12.60;;
23046;SDS011;11691;51.462;6.902;2022-08-19T09:47:25;13.68;;;12.02;;
23046;SDS011;11691;51.462;6.902;2022-08-19T09:49:51;16.38;;;12.93;;
23046;SDS011;11691;51.462;6.902;2022-08-19T09:52:17;15.73;;;12.38;;
23046;SDS011;11691;51.462;6.902;2022-08-19T09:54:43;16.02;;;11.35;;
23046;SDS011;11691;51.462;6.902;2022-08-19T09:57:09;17.15;;;14.07;;
23046;SDS011;11691;51.462;6.902;2022-08-19T09:59:35;16.30;;;13.50;;
23046;SDS011;11691;51.462;6.902;2022-08-19T10:02:01;17.38;;;15.43;;
23046;SDS011;11691;51.462;6.902;2022-08-19T10:04:27;20.27;;;14.48;;
23046;SDS011;11691;51.462;6.902;2022-08-19T10:07:14;17.13;;;13.40;;
23046;SDS011;11691;51.462;6.902;2022-08-19T10:09:40;16.90;;;15.10;;
23046;SDS011;11691;51.462;6.902;2022-08-19T10:12:06;23.67;;;19.73;;
23046;SDS011;11691;51.462;6.902;2022-08-19T10:14:33;24.23;;;19.42;;
23046;SDS011;11691;51.462;6.902;2022-08-19T10:16:59;23.52;;;17.98;;
23046;SDS011;11691;51.462;6.902;2022-08-19T10:19:27;20.17;;;17.55;;
23046;SDS011;11691;51.462;6.902;2022-08-19T10:21:57;21.02;;;16.95;;
23046;SDS011;11691;51.462;6.902;2022-08-19T10:24:23;19.02;;;16.35;;
23046;SDS011;11691;51.462;6.902;2022-08-19T10:26:51;25.23;;;18.85;;
23046;SDS011;11691;51.462;6.902;2022-08-19T10:29:17;21.23;;;16.80;;
23046;SDS011;11691;51.462;6.902;2022-08-19T10:31:42;20.88;;;17.13;;
23046;SDS011;11691;51.462;6.902;2022-08-19T10:34:09;21.08;;;16.33;;
23046;SDS011;11691;51.462;6.902;2022-08-19T10:36:35;21.35;;;16.20;;
23046;SDS011;11691;51.462;6.902;2022-08-19T10:39:04;25.02;;;17.30;;
23046;SDS011;11691;51.462;6.902;2022-08-19T10:41:32;23.27;;;17.75;;
23046;SDS011;11691;51.462;6.902;2022-08-19T10:44:01;23.27;;;17.63;;
23046;SDS011;11691;51.462;6.902;2022-08-19T10:46:28;20.45;;;16.20;;
23046;SDS011;11691;51.462;6.902;2022-08-19T10:48:57;18.25;;;16.15;;
23046;SDS011;11691;51.462;6.902;2022-08-19T10:51:24;21.38;;;17.02;;
23046;SDS011;11691;51.462;6.902;2022-08-19T10:54:09;19.75;;;16.45;;
23046;SDS011;11691;51.462;6.902;2022-08-19T10:56:35;24.85;;;15.82;;
23046;SDS011;11691;51.462;6.902;2022-08-19T10:59:21;16.88;;;14.88;;
23046;SDS011;11691;51.462;6.902;2022-08-19T11:01:47;16.92;;;13.75;;
23046;SDS011;11691;51.462;6.902;2022-08-19T11:04:14;18.50;;;14.70;;
23046;SDS011;11691;51.462;6.902;2022-08-19T11:06:42;16.95;;;13.75;;
23046;SDS011;11691;51.462;6.902;2022-08-19T11:09:10;15.48;;;13.45;;
23046;SDS011;11691;51.462;6.902;2022-08-19T11:11:37;13.43;;;11.95;;
23046;SDS011;11691;51.462;6.902;2022-08-19T11:14:15;13.40;;;12.00;;
23046;SDS011;11691;51.462;6.902;2022-08-19T11:16:55;13.23;;;11.02;;
23046;SDS011;11691;51.462;6.902;2022-08-19T11:19:22;13.80;;;12.15;;
23046;SDS011;11691;51.462;6.902;2022-08-19T11:21:49;15.40;;;12.18;;
23046;SDS011;11691;51.462;6.902;2022-08-19T11:24:20;15.45;;;11.25;;
23046;SDS011;11691;51.462;6.902;2022-08-19T11:26:47;11.88;;;10.13;;
23046;SDS011;11691;51.462;6.902;2022-08-19T11:29:15;11.63;;;9.02;;
23046;SDS011;11691;51.462;6.902;2022-08-19T11:31:42;11.40;;;8.55;;
23046;SDS011;11691;51.462;6.902;2022-08-19T11:34:12;12.85;;;7.32;;
23046;SDS011;11691;51.462;6.902;2022-08-19T11:36:39;10.05;;;6.97;;
23046;SDS011;11691;51.462;6.902;2022-08-19T11:39:07;15.63;;;9.60;;
23046;SDS011;11691;51.462;6.902;2022-08-19T11:41:34;11.55;;;9.13;;
23046;SDS011;11691;51.462;6.902;2022-08-19T11:44:01;9.75;;;7.93;;
23046;SDS011;11691;51.462;6.902;2022-08-19T11:46:29;12.70;;;9.55;;
23046;SDS011;11691;51.462;6.902;2022-08-19T11:48:56;11.50;;;10.30;;
23046;SDS011;11691;51.462;6.902;2022-08-19T11:51:24;9.60;;;7.43;;
23046;SDS011;11691;51.462;6.902;2022-08-19T11:53:51;8.55;;;6.47;;
23046;SDS011;11691;51.462;6.902;2022-08-19T11:56:18;8.07;;;5.53;;
23046;SDS011;11691;51.462;6.902;2022-08-19T11:58:44;8.93;;;7.43;;
23046;SDS011;11691;51.462;6.902;2022-08-19T12:01:11;9.32;;;6.10;;
23046;SDS011;11691;51.462;6.902;2022-08-19T12:03:38;6.28;;;5.40;;
23046;SDS011;11691;51.462;6.902;2022-08-19T12:06:05;6.35;;;5.40;;
23046;SDS011;11691;51.462;6.902;2022-08-19T12:08:31;11.18;;;5.65;;
23046;SDS011;11691;51.462;6.902;2022-08-19T12:10:57;7.15;;;5.85;;
23046;SDS011;11691;51.462;6.902;2022-08-19T12:13:26;8.60;;;6.60;;
23046;SDS011;11691;51.462;6.902;2022-08-19T12:15:52;6.32;;;5.03;;
23046;SDS011;11691;51.462;6.902;2022-08-19T12:18:19;5.47;;;4.80;;
23046;SDS011;11691;51.462;6.902;2022-08-19T12:20:44;7.13;;;5.25;;
23046;SDS011;11691;51.462;6.902;2022-08-19T12:23:11;5.25;;;4.65;;
23046;SDS011;11691;51.462;6.902;2022-08-19T12:25:42;6.80;;;4.88;;
23046;SDS011;11691;51.462;6.902;2022-08-19T12:28:13;6.10;;;5.07;;
23046;SDS011;11691;51.462;6.902;2022-08-19T12:30:38;6.45;;;5.85;;
23046;SDS011;11691;51.462;6.902;2022-08-19T12:33:04;9.25;;;5.90;;
23046;SDS011;11691;51.462;6.902;2022-08-19T12:35:30;5.88;;;5.00;;
23046;SDS011;11691;51.462;6.902;2022-08-19T12:37:56;5.65;;;4.63;;
23046;SDS011;11691;51.462;6.902;2022-08-19T12:40:23;4.07;;;3.70;;
23046;SDS011;11691;51.462;6.902;2022-08-19T12:42:49;6.88;;;4.20;;
23046;SDS011;11691;51.462;6.902;2022-08-19T12:45:16;4.60;;;4.20;;
23046;SDS011;11691;51.462;6.902;2022-08-19T12:47:42;7.28;;;4.70;;
23046;SDS011;11691;51.462;6.902;2022-08-19T12:50:08;9.07;;;4.72;;
23046;SDS011;11691;51.462;6.902;2022-08-19T12:52:35;5.38;;;4.18;;
23046;SDS011;11691;51.462;6.902;2022-08-19T12:55:06;7.43;;;4.70;;
23046;SDS011;11691;51.462;6.902;2022-08-19T12:57:32;5.22;;;4.07;;
23046;SDS011;11691;51.462;6.902;2022-08-19T13:00:03;3.90;;;3.50;;
23046;SDS011;11691;51.462;6.902;2022-08-19T13:02:32;5.55;;;3.95;;
23046;SDS011;11691;51.462;6.902;2022-08-19T13:04:59;10.25;;;4.57;;
23046;SDS011;11691;51.462;6.902;2022-08-19T13:07:25;5.95;;;5.35;;
23046;SDS011;11691;51.462;6.902;2022-08-19T13:09:52;6.47;;;4.68;;
23046;SDS011;11691;51.462;6.902;2022-08-19T13:12:18;3.92;;;3.53;;
23046;SDS011;11691;51.462;6.902;2022-08-19T13:14:45;6.00;;;4.20;;
23046;SDS011;11691;51.462;6.902;2022-08-19T13:17:15;5.35;;;4.25;;
23046;SDS011;11691;51.462;6.902;2022-08-19T13:19:41;5.78;;;3.92;;
23046;SDS011;11691;51.462;6.902;2022-08-19T13:22:07;5.10;;;3.30;;
23046;SDS011;11691;51.462;6.902;2022-08-19T13:24:33;5.13;;;3.30;;
23046;SDS011;11691;51.462;6.902;2022-08-19T13:27:01;5.68;;;3.70;;
23046;SDS011;11691;51.462;6.902;2022-08-19T13:29:27;4.20;;;3.65;;
23046;SDS011;11691;51.462;6.902;2022-08-19T13:32:12;6.60;;;3.47;;
23046;SDS011;11691;51.462;6.902;2022-08-19T13:34:56;5.45;;;3.53;;
23046;SDS011;11691;51.462;6.902;2022-08-19T13:37:22;5.97;;;3.85;;
23046;SDS011;11691;51.462;6.902;2022-08-19T13:40:06;5.25;;;2.97;;
23046;SDS011;11691;51.462;6.902;2022-08-19T13:42:36;4.05;;;3.15;;
23046;SDS011;11691;51.462;6.902;2022-08-19T13:45:02;7.15;;;4.38;;
23046;SDS011;11691;51.462;6.902;2022-08-19T13:47:31;6.32;;;3.33;;
23046;SDS011;11691;51.462;6.902;2022-08-19T13:49:59;5.60;;;3.80;;
23046;SDS011;11691;51.462;6.902;2022-08-19T13:52:28;5.65;;;4.10;;
23046;SDS011;11691;51.462;6.902;2022-08-19T13:54:54;6.20;;;4.00;;
23046;SDS011;11691;51.462;6.902;2022-08-19T13:57:20;5.20;;;3.38;;
23046;SDS011;11691;51.462;6.902;2022-08-19T13:59:46;5.93;;;4.00;;
23046;SDS011;11691;51.462;6.902;2022-08-19T14:02:11;11.55;;;5.15;;
23046;SDS011;11691;51.462;6.902;2022-08-19T14:04:37;7.35;;;4.90;;
23046;SDS011;11691;51.462;6.902;2022-08-19T14:07:03;8.70;;;4.75;;
23046;SDS011;11691;51.462;6.902;2022-08-19T14:09:29;6.22;;;4.20;;
23046;SDS011;11691;51.462;6.902;2022-08-19T14:11:55;6.50;;;4.75;;
23046;SDS011;11691;51.462;6.902;2022-08-19T14:14:21;9.82;;;4.03;;
23046;SDS011;11691;51.462;6.902;2022-08-19T14:16:47;9.80;;;4.00;;
23046;SDS011;11691;51.462;6.902;2022-08-19T14:19:14;5.60;;;3.83;;
23046;SDS011;11691;51.462;6.902;2022-08-19T14:21:40;6.78;;;3.90;;
23046;SDS011;11691;51.462;6.902;2022-08-19T14:24:06;5.50;;;3.80;;
23046;SDS011;11691;51.462;6.902;2022-08-19T14:26:32;6.72;;;4.25;;
23046;SDS011;11691;51.462;6.902;2022-08-19T14:28:58;7.60;;;4.97;;
23046;SDS011;11691;51.462;6.902;2022-08-19T14:31:24;7.40;;;4.90;;
23046;SDS011;11691;51.462;6.902;2022-08-19T14:33:50;8.50;;;5.05;;
23046;SDS011;11691;51.462;6.902;2022-08-19T14:36:17;8.50;;;5.68;;
23046;SDS011;11691;51.462;6.902;2022-08-19T14:38:43;9.25;;;5.95;;
23046;SDS011;11691;51.462;6.902;2022-08-19T14:41:13;8.50;;;5.68;;